createdAt,value
2019-02-26T00:00:05.089Z,6.20
2019-02-26T00:02:33.533Z,4.77
2019-02-26T00:05:02.876Z,5.13
2019-02-26T00:07:30.390Z,6.13
2019-02-26T00:10:01.916Z,4.80
2019-02-26T00:12:30.950Z,5.63
2019-02-26T00:14:59.499Z,4.43
2019-02-26T00:17:25.638Z,3.63
2019-02-26T00:19:52.065Z,5.30
2019-02-26T00:22:18.734Z,4.60
2019-02-26T00:24:46.582Z,5.47
2019-02-26T00:27:13.133Z,7.57
2019-02-26T00:29:39.914Z,4.30
2019-02-26T00:32:07.193Z,4.40
2019-02-26T00:34:36.745Z,5.50
2019-02-26T00:37:04.048Z,4.47
2019-02-26T00:39:31.604Z,8.83
2019-02-26T00:42:00.055Z,5.87
2019-02-26T00:44:27.447Z,7.37
2019-02-26T00:46:55.726Z,6.43
2019-02-26T00:49:23.700Z,4.87
2019-02-26T00:51:52.808Z,5.73
2019-02-26T00:54:22.187Z,5.90
2019-02-26T00:56:48.874Z,5.83
2019-02-26T00:59:15.429Z,4.97
2019-02-26T01:01:44.072Z,5.17
2019-02-26T01:04:10.715Z,3.87
2019-02-26T01:06:37.149Z,3.67
2019-02-26T01:09:06.608Z,7.50
2019-02-26T01:11:34.880Z,5.83
2019-02-26T01:14:02.264Z,4.40
2019-02-26T01:16:28.663Z,9.63
2019-02-26T01:18:55.327Z,6.47
2019-02-26T01:21:24.174Z,4.77
2019-02-26T01:23:50.270Z,6.50
2019-02-26T01:26:16.918Z,5.23
2019-02-26T01:28:46.149Z,5.10
2019-02-26T01:31:12.261Z,4.20
2019-02-26T01:33:38.697Z,6.27
2019-02-26T01:36:06.117Z,3.80
2019-02-26T01:38:32.641Z,4.40
2019-02-26T01:40:59.038Z,3.23
2019-02-26T01:43:25.850Z,3.73
2019-02-26T01:45:54.915Z,4.70
2019-02-26T01:48:20.591Z,3.77
2019-02-26T01:50:47.358Z,4.10
2019-02-26T01:53:14.505Z,2.80
2019-02-26T01:55:43.681Z,6.27
2019-02-26T01:58:11.006Z,6.00
2019-02-26T02:00:38.691Z,7.90
2019-02-26T02:03:06.554Z,3.27
2019-02-26T02:05:32.985Z,3.97
2019-02-26T02:07:59.390Z,4.07
2019-02-26T02:10:26.210Z,5.57
2019-02-26T02:12:55.182Z,4.93
2019-02-26T02:15:23.758Z,5.20
2019-02-26T02:17:49.766Z,4.47
2019-02-26T02:20:19.425Z,3.83
2019-02-26T02:22:44.606Z,3.13
2019-02-26T02:25:11.660Z,2.90
2019-02-26T02:27:38.470Z,3.00
2019-02-26T02:30:14.264Z,3.80
2019-02-26T02:32:38.325Z,3.53
2019-02-26T02:35:09.468Z,3.50
2019-02-26T02:37:35.492Z,2.83
2019-02-26T02:40:03.487Z,3.13
2019-02-26T02:42:29.983Z,4.27
2019-02-26T02:44:56.605Z,4.20
2019-02-26T02:47:25.328Z,3.47
2019-02-26T02:49:52.424Z,3.83
2019-02-26T02:52:18.851Z,5.40
2019-02-26T02:54:47.565Z,5.27
2019-02-26T02:57:13.820Z,3.87
2019-02-26T02:59:42.258Z,3.83
2019-02-26T03:02:09.337Z,6.40
2019-02-26T03:04:37.213Z,4.30
2019-02-26T03:07:03.823Z,4.13
2019-02-26T03:09:31.698Z,3.70
2019-02-26T03:11:59.174Z,3.03
2019-02-26T03:14:25.880Z,4.07
2019-02-26T03:16:53.517Z,3.60
2019-02-26T03:19:20.109Z,3.83
2019-02-26T03:21:47.277Z,5.40
2019-02-26T03:24:15.126Z,3.43
2019-02-26T03:26:41.617Z,2.87
2019-02-26T03:29:09.119Z,2.33
2019-02-26T03:31:40.559Z,2.53
2019-02-26T03:34:09.169Z,4.07
2019-02-26T03:36:34.203Z,2.83
2019-02-26T03:39:02.775Z,2.73
2019-02-26T03:41:31.362Z,2.53
2019-02-26T03:44:00.548Z,3.50
2019-02-26T03:46:26.532Z,3.20
2019-02-26T03:48:52.995Z,2.97
2019-02-26T03:51:19.548Z,5.13
2019-02-26T03:53:46.326Z,4.33
2019-02-26T03:56:14.796Z,2.80
2019-02-26T03:58:41.528Z,4.20
2019-02-26T04:01:10.231Z,2.80
2019-02-26T04:03:37.583Z,2.27
2019-02-26T04:06:08.769Z,5.40
2019-02-26T04:08:33.547Z,6.47
2019-02-26T04:11:01.938Z,4.60
2019-02-26T04:13:29.671Z,2.93
2019-02-26T04:15:58.964Z,4.33
2019-02-26T04:18:24.928Z,10.77
2019-02-26T04:20:51.758Z,13.40
2019-02-26T04:23:19.901Z,11.43
2019-02-26T04:26:20.879Z,9.23
2019-02-26T04:28:48.665Z,7.70
2019-02-26T04:31:41.503Z,8.67
2019-02-26T04:34:18.268Z,5.83
2019-02-26T04:37:08.056Z,7.60
2019-02-26T04:39:51.186Z,4.33
2019-02-26T04:42:35.153Z,6.50
2019-02-26T04:45:11.681Z,5.57
2019-02-26T04:47:55.451Z,7.00
2019-02-26T04:50:26.095Z,6.97
2019-02-26T04:52:50.557Z,5.13
2019-02-26T04:55:17.210Z,5.13
2019-02-26T04:57:46.473Z,4.03
2019-02-26T05:00:11.963Z,7.10
2019-02-26T05:02:39.479Z,9.47
2019-02-26T05:05:06.917Z,10.70
2019-02-26T05:07:35.427Z,7.00
2019-02-26T05:10:02.887Z,7.70
2019-02-26T05:12:31.627Z,33.37
2019-02-26T05:14:58.953Z,14.57
2019-02-26T05:17:28.083Z,13.37
2019-02-26T05:19:53.944Z,10.60
2019-02-26T05:22:22.690Z,7.50
2019-02-26T05:24:50.310Z,8.57
2019-02-26T05:27:21.425Z,7.47
2019-02-26T05:29:46.792Z,5.90
2019-02-26T05:32:14.608Z,5.87
2019-02-26T05:34:43.397Z,5.40
2019-02-26T05:37:11.237Z,4.67
2019-02-26T05:39:40.391Z,7.60
2019-02-26T05:42:06.856Z,6.97
2019-02-26T05:44:33.382Z,6.20
2019-02-26T05:47:01.640Z,5.73
2019-02-26T05:49:28.282Z,8.50
2019-02-26T05:51:56.853Z,5.07
2019-02-26T05:54:24.510Z,10.40
2019-02-26T05:56:51.081Z,9.40
2019-02-26T05:59:18.049Z,9.00
2019-02-26T06:01:46.660Z,8.47
2019-02-26T06:04:15.577Z,8.83
2019-02-26T06:06:43.067Z,6.23
2019-02-26T06:09:09.585Z,5.73
2019-02-26T06:11:38.992Z,6.27
2019-02-26T06:14:07.178Z,6.27
2019-02-26T06:16:33.306Z,7.33
2019-02-26T06:18:59.925Z,6.40
2019-02-26T06:21:26.344Z,8.13
2019-02-26T06:23:53.727Z,3.87
2019-02-26T06:26:20.670Z,6.07
2019-02-26T06:28:53.563Z,5.57
2019-02-26T06:31:22.172Z,4.60
2019-02-26T06:33:50.645Z,7.13
2019-02-26T06:36:18.536Z,5.30
2019-02-26T06:38:49.272Z,4.17
2019-02-26T06:41:14.151Z,5.03
2019-02-26T06:43:43.441Z,4.10
2019-02-26T06:46:11.225Z,7.07
2019-02-26T06:48:37.175Z,3.87
2019-02-26T06:51:04.713Z,4.27
2019-02-26T06:53:32.198Z,3.80
2019-02-26T06:56:00.764Z,5.77
2019-02-26T06:58:28.733Z,7.37
2019-02-26T07:00:55.863Z,6.80
2019-02-26T07:03:24.985Z,6.90
2019-02-26T07:05:51.244Z,5.13
2019-02-26T07:08:18.977Z,5.60
2019-02-26T07:10:46.276Z,5.43
2019-02-26T07:13:14.131Z,8.20
2019-02-26T07:15:43.045Z,4.60
2019-02-26T07:18:10.235Z,4.47
2019-02-26T07:20:40.006Z,5.90
2019-02-26T07:23:05.889Z,5.97
2019-02-26T07:25:36.274Z,5.73
2019-02-26T07:28:02.940Z,6.27
2019-02-26T07:30:29.772Z,7.37
2019-02-26T07:32:56.281Z,8.63
2019-02-26T07:35:23.736Z,10.40
2019-02-26T07:37:52.206Z,9.70
2019-02-26T07:40:18.774Z,7.30
2019-02-26T07:42:46.770Z,7.37
2019-02-26T07:45:15.388Z,6.47
2019-02-26T07:47:42.260Z,6.83
2019-02-26T07:50:14.327Z,6.20
2019-02-26T07:52:40.316Z,6.07
2019-02-26T07:55:09.244Z,5.03
2019-02-26T07:57:40.341Z,10.47
2019-02-26T08:00:15.973Z,6.00
2019-02-26T08:02:42.823Z,7.10
2019-02-26T08:05:10.345Z,5.97
2019-02-26T08:07:36.859Z,9.97
2019-02-26T08:10:08.229Z,13.97
2019-02-26T08:12:37.591Z,13.83
2019-02-26T08:15:08.577Z,12.87
2019-02-26T08:17:35.070Z,10.17
2019-02-26T08:20:04.222Z,14.00
2019-02-26T08:22:31.907Z,8.33
2019-02-26T08:24:58.478Z,7.23
2019-02-26T08:27:26.285Z,9.60
2019-02-26T08:29:54.701Z,7.60
2019-02-26T08:32:23.953Z,10.10
2019-02-26T08:34:50.402Z,8.27
2019-02-26T08:37:17.094Z,7.77
2019-02-26T08:39:43.491Z,6.40
2019-02-26T08:42:09.911Z,8.70
2019-02-26T08:44:36.609Z,6.20
2019-02-26T08:47:08.787Z,7.97
2019-02-26T08:49:35.125Z,5.50
2019-02-26T08:52:04.256Z,8.07
2019-02-26T08:54:33.322Z,5.03
2019-02-26T08:57:00.918Z,3.73
2019-02-26T08:59:27.390Z,5.70
2019-02-26T09:01:54.162Z,4.13
2019-02-26T09:04:21.489Z,3.80
2019-02-26T09:06:50.546Z,4.57
2019-02-26T09:09:17.762Z,4.87
2019-02-26T09:11:44.162Z,3.20
2019-02-26T09:14:12.116Z,5.97
2019-02-26T09:16:38.896Z,4.00
2019-02-26T09:19:05.377Z,3.70
2019-02-26T09:21:31.802Z,5.57
2019-02-26T09:24:00.019Z,5.47
2019-02-26T09:26:26.605Z,4.80
2019-02-26T09:28:54.968Z,6.80
2019-02-26T09:31:21.648Z,4.87
2019-02-26T09:33:48.054Z,3.80
2019-02-26T09:36:15.752Z,4.63
2019-02-26T09:38:44.279Z,4.00
2019-02-26T09:41:13.687Z,3.70
2019-02-26T09:43:41.004Z,4.10
2019-02-26T09:46:10.153Z,5.13
2019-02-26T09:48:38.245Z,6.10
2019-02-26T09:51:07.016Z,5.20
2019-02-26T09:53:33.686Z,4.03
2019-02-26T09:56:00.449Z,4.13
2019-02-26T09:58:27.101Z,4.80
2019-02-26T10:00:54.099Z,4.50
2019-02-26T10:03:20.671Z,4.47
2019-02-26T10:05:48.235Z,4.13
2019-02-26T10:08:17.341Z,4.30
2019-02-26T10:10:43.656Z,3.57
2019-02-26T10:13:10.190Z,4.57
2019-02-26T10:15:39.297Z,5.50
2019-02-26T10:18:07.208Z,7.22
2019-02-26T10:20:33.468Z,3.00
2019-02-26T10:23:02.736Z,2.83
2019-02-26T10:25:31.065Z,3.40
2019-02-26T10:27:56.689Z,3.12
2019-02-26T10:30:23.448Z,2.37
2019-02-26T10:32:50.235Z,6.17
2019-02-26T10:35:25.636Z,2.58
2019-02-26T10:37:54.397Z,4.92
2019-02-26T10:40:21.362Z,2.83
2019-02-26T10:42:48.308Z,1.80
2019-02-26T10:45:17.104Z,2.05
2019-02-26T10:47:44.953Z,2.10
2019-02-26T10:50:16.357Z,3.25
2019-02-26T10:52:44.131Z,1.60
2019-02-26T10:55:14.986Z,0.98
2019-02-26T10:57:39.175Z,1.32
2019-02-26T11:00:12.200Z,2.02
2019-02-26T11:02:41.407Z,1.77
2019-02-26T11:05:11.027Z,1.27
2019-02-26T11:07:39.933Z,1.20
2019-02-26T11:10:08.255Z,2.25
2019-02-26T11:12:34.994Z,1.72
2019-02-26T11:15:04.353Z,1.47
2019-02-26T11:17:31.640Z,1.62
2019-02-26T11:19:58.632Z,4.40
2019-02-26T11:22:27.981Z,1.62
2019-02-26T11:24:56.016Z,1.50
2019-02-26T11:27:23.201Z,2.02
2019-02-26T11:29:52.045Z,3.00
2019-02-26T11:32:18.968Z,2.27
2019-02-26T11:34:45.438Z,2.95
2019-02-26T11:37:11.873Z,3.22
2019-02-26T11:39:38.255Z,2.92
2019-02-26T11:42:04.769Z,2.25
2019-02-26T11:44:32.586Z,2.92
2019-02-26T11:46:59.025Z,1.85
2019-02-26T11:49:26.465Z,1.55
2019-02-26T11:51:52.854Z,2.83
2019-02-26T11:54:19.502Z,3.60
2019-02-26T11:56:47.292Z,1.95
2019-02-26T11:59:14.901Z,2.37
2019-02-26T12:01:42.583Z,1.72
2019-02-26T12:04:11.207Z,2.17
2019-02-26T12:06:39.754Z,3.22
2019-02-26T12:09:08.784Z,1.60
2019-02-26T12:11:37.077Z,3.35
2019-02-26T12:14:03.597Z,2.65
2019-02-26T12:16:30.181Z,2.12
2019-02-26T12:18:58.892Z,4.20
2019-02-26T12:21:27.554Z,3.30
2019-02-26T12:23:53.750Z,4.78
2019-02-26T12:26:25.625Z,3.17
2019-02-26T12:28:52.277Z,5.55
2019-02-26T12:31:18.943Z,5.87
2019-02-26T12:33:45.331Z,3.40
2019-02-26T12:36:11.845Z,4.80
2019-02-26T12:38:38.526Z,4.33
2019-02-26T12:41:08.190Z,4.50
2019-02-26T12:43:36.464Z,3.15
2019-02-26T12:46:04.551Z,4.05
2019-02-26T12:48:30.222Z,5.33
2019-02-26T12:50:58.380Z,3.90
2019-02-26T12:53:25.421Z,5.70
2019-02-26T12:55:54.034Z,4.10
2019-02-26T12:58:21.367Z,3.72
2019-02-26T13:00:48.413Z,3.12
2019-02-26T13:03:15.862Z,3.40
2019-02-26T13:05:45.501Z,4.28
2019-02-26T13:08:13.523Z,3.40
2019-02-26T13:10:42.628Z,3.42
2019-02-26T13:13:08.641Z,4.05
2019-02-26T13:15:35.353Z,3.20
2019-02-26T13:18:02.054Z,3.65
2019-02-26T13:20:28.444Z,3.55
2019-02-26T13:22:56.963Z,3.87
2019-02-26T13:25:26.733Z,3.55
2019-02-26T13:27:52.458Z,4.50
2019-02-26T13:30:23.165Z,3.72
2019-02-26T13:32:56.189Z,3.87
2019-02-26T13:35:19.829Z,5.80
2019-02-26T13:37:53.001Z,3.47
2019-02-26T13:40:21.336Z,3.58
2019-02-26T13:42:59.282Z,3.05
2019-02-26T13:45:20.025Z,4.05
2019-02-26T13:47:46.896Z,2.95
2019-02-26T13:50:17.520Z,3.05
2019-02-26T13:52:43.915Z,4.28
2019-02-26T13:55:10.454Z,6.80
2019-02-26T13:57:37.244Z,3.60
2019-02-26T14:00:07.595Z,3.17
2019-02-26T14:02:34.316Z,3.15
2019-02-26T14:05:01.202Z,3.27
2019-02-26T14:07:27.889Z,2.75
2019-02-26T14:09:54.268Z,4.05
2019-02-26T14:12:20.781Z,5.15
2019-02-26T14:14:47.187Z,4.40
2019-02-26T14:17:13.834Z,3.70
2019-02-26T14:19:41.537Z,3.85
2019-02-26T14:22:08.082Z,5.35
2019-02-26T14:24:34.840Z,4.10
2019-02-26T14:27:01.629Z,4.93
2019-02-26T14:29:29.753Z,5.03
2019-02-26T14:31:56.356Z,3.73
2019-02-26T14:34:23.054Z,5.50
2019-02-26T14:36:49.709Z,4.57
2019-02-26T14:39:16.377Z,4.17
2019-02-26T14:41:43.131Z,8.10
2019-02-26T14:44:09.540Z,7.70
2019-02-26T14:46:36.044Z,4.20
2019-02-26T14:49:02.910Z,4.27
2019-02-26T14:51:29.622Z,6.23
2019-02-26T14:53:56.402Z,4.50
2019-02-26T14:56:25.024Z,3.33
2019-02-26T14:58:52.647Z,4.43
2019-02-26T15:01:19.846Z,3.37
2019-02-26T15:03:46.727Z,3.70
2019-02-26T15:06:13.200Z,4.33
2019-02-26T15:08:41.286Z,2.30
2019-02-26T15:11:08.077Z,3.97
2019-02-26T15:13:34.761Z,2.57
2019-02-26T15:16:01.246Z,2.47
2019-02-26T15:18:30.112Z,2.50
2019-02-26T15:20:56.603Z,3.00
2019-02-26T15:23:23.131Z,2.93
2019-02-26T15:25:49.793Z,2.50
2019-02-26T15:28:16.242Z,3.07
2019-02-26T15:30:43.046Z,1.70
2019-02-26T15:33:11.357Z,5.00
2019-02-26T15:35:38.149Z,5.47
2019-02-26T15:38:04.658Z,6.90
2019-02-26T15:40:31.278Z,5.73
2019-02-26T15:42:58.145Z,7.83
2019-02-26T15:45:28.866Z,2.60
2019-02-26T15:47:55.554Z,6.47
2019-02-26T15:50:22.045Z,2.30
2019-02-26T15:52:52.669Z,2.47
2019-02-26T15:55:25.951Z,3.63
2019-02-26T15:57:53.290Z,2.53
2019-02-26T16:00:21.390Z,1.90
2019-02-26T16:02:49.106Z,2.70
2019-02-26T16:05:15.918Z,3.23
2019-02-26T16:07:42.702Z,2.40
2019-02-26T16:10:10.626Z,1.87
2019-02-26T16:12:37.248Z,2.47
2019-02-26T16:15:08.082Z,2.83
2019-02-26T16:17:35.232Z,2.13
2019-02-26T16:20:02.146Z,3.13
2019-02-26T16:22:30.269Z,3.43
2019-02-26T16:24:57.145Z,2.80
2019-02-26T16:27:24.315Z,6.83
2019-02-26T16:29:51.082Z,5.40
2019-02-26T16:32:18.007Z,4.97
2019-02-26T16:34:44.799Z,6.40
2019-02-26T16:37:11.410Z,6.07
2019-02-26T16:39:38.462Z,3.20
2019-02-26T16:42:05.311Z,5.03
2019-02-26T16:44:31.865Z,3.00
2019-02-26T16:46:58.396Z,3.30
2019-02-26T16:49:25.897Z,2.93
2019-02-26T16:51:54.928Z,2.77
2019-02-26T16:54:22.441Z,6.00
2019-02-26T16:56:49.022Z,2.30
2019-02-26T16:59:15.508Z,2.17
2019-02-26T17:01:42.910Z,3.93
2019-02-26T17:04:10.463Z,2.83
2019-02-26T17:06:37.212Z,2.20
2019-02-26T17:09:05.493Z,1.47
2019-02-26T17:11:33.921Z,2.17
2019-02-26T17:14:01.378Z,1.73
2019-02-26T17:16:31.321Z,2.63
2019-02-26T17:18:57.397Z,1.90
2019-02-26T17:21:24.143Z,1.90
2019-02-26T17:23:50.902Z,1.47
2019-02-26T17:26:17.358Z,1.53
2019-02-26T17:28:44.258Z,1.50
2019-02-26T17:31:10.805Z,3.57
2019-02-26T17:33:37.356Z,2.73
2019-02-26T17:36:03.949Z,1.70
2019-02-26T17:38:30.993Z,2.40
2019-02-26T17:40:57.719Z,3.87
2019-02-26T17:43:25.134Z,3.07
2019-02-26T17:45:51.854Z,2.57
2019-02-26T17:48:18.378Z,2.43
2019-02-26T17:50:45.877Z,2.07
2019-02-26T17:53:13.089Z,2.17
2019-02-26T17:55:39.660Z,1.97
2019-02-26T17:58:09.795Z,1.63
2019-02-26T18:00:37.275Z,2.10
2019-02-26T18:03:06.695Z,1.50
2019-02-26T18:05:32.097Z,3.23
2019-02-26T18:07:58.556Z,1.70
2019-02-26T18:10:26.078Z,2.07
2019-02-26T18:12:54.104Z,2.07
2019-02-26T18:15:21.125Z,4.73
2019-02-26T18:17:47.643Z,3.70
2019-02-26T18:20:16.213Z,2.03
2019-02-26T18:22:42.866Z,1.53
2019-02-26T18:25:14.123Z,1.97
2019-02-26T18:27:40.869Z,1.23
2019-02-26T18:30:15.113Z,1.33
2019-02-26T18:32:49.809Z,1.97
2019-02-26T18:35:10.272Z,5.40
2019-02-26T18:37:46.030Z,4.37
2019-02-26T18:40:11.390Z,3.37
2019-02-26T18:42:41.369Z,6.23
2019-02-26T18:45:12.246Z,22.17
2019-02-26T18:47:42.265Z,15.30
2019-02-26T18:50:07.554Z,6.20
2019-02-26T18:52:33.968Z,4.50
2019-02-26T18:55:00.616Z,5.57
2019-02-26T18:57:27.299Z,2.73
2019-02-26T18:59:55.027Z,2.87
2019-02-26T19:02:22.715Z,4.40
2019-02-26T19:04:49.457Z,7.57
2019-02-26T19:07:16.246Z,5.50
2019-02-26T19:09:45.103Z,4.60
2019-02-26T19:12:12.383Z,5.87
2019-02-26T19:14:42.041Z,4.17
2019-02-26T19:17:07.680Z,7.53
2019-02-26T19:19:34.169Z,5.43
2019-02-26T19:22:00.681Z,6.73
2019-02-26T19:24:27.220Z,5.47
2019-02-26T19:26:53.991Z,5.77
2019-02-26T19:29:20.590Z,7.83
2019-02-26T19:31:47.058Z,5.00
2019-02-26T19:34:13.566Z,7.47
2019-02-26T19:36:40.088Z,3.00
2019-02-26T19:39:06.845Z,5.77
2019-02-26T19:41:34.433Z,3.93
2019-02-26T19:44:00.851Z,4.20
2019-02-26T19:46:27.391Z,7.60
2019-02-26T19:48:53.891Z,6.80
2019-02-26T19:51:22.886Z,5.97
2019-02-26T19:53:48.747Z,7.37
2019-02-26T19:56:15.506Z,7.27
2019-02-26T19:58:42.069Z,7.80
2019-02-26T20:01:08.721Z,5.67
2019-02-26T20:03:39.885Z,9.77
2019-02-26T20:06:03.900Z,5.20
2019-02-26T20:08:30.472Z,8.43
2019-02-26T20:10:57.863Z,6.37
2019-02-26T20:13:24.478Z,6.93
2019-02-26T20:15:54.627Z,5.83
2019-02-26T20:18:20.993Z,6.20
2019-02-26T20:20:49.085Z,6.03
2019-02-26T20:23:15.842Z,5.63
2019-02-26T20:25:43.365Z,4.80
2019-02-26T20:28:09.861Z,4.07
2019-02-26T20:30:38.582Z,7.57
2019-02-26T20:33:05.491Z,5.43
2019-02-26T20:35:31.989Z,5.17
2019-02-26T20:37:58.830Z,5.63
2019-02-26T20:40:25.785Z,4.77
2019-02-26T20:42:52.172Z,13.10
2019-02-26T20:45:20.067Z,6.07
2019-02-26T20:47:46.658Z,4.13
2019-02-26T20:50:13.594Z,4.60
2019-02-26T20:52:40.715Z,9.50
2019-02-26T20:55:16.687Z,6.47
2019-02-26T20:57:45.071Z,5.93
2019-02-26T21:00:17.001Z,7.43
2019-02-26T21:02:45.643Z,10.60
2019-02-26T21:05:13.335Z,12.03
2019-02-26T21:07:39.764Z,20.00
2019-02-26T21:10:09.445Z,12.67
2019-02-26T21:12:36.675Z,12.00
2019-02-26T21:15:06.914Z,13.77
2019-02-26T21:17:33.419Z,16.63
2019-02-26T21:20:01.275Z,11.90
2019-02-26T21:22:27.904Z,8.83
2019-02-26T21:24:54.655Z,9.87
2019-02-26T21:27:21.107Z,9.37
2019-02-26T21:29:47.578Z,11.90
2019-02-26T21:32:14.336Z,14.17
2019-02-26T21:34:42.923Z,9.70
2019-02-26T21:37:09.437Z,15.57
2019-02-26T21:39:35.862Z,12.40
2019-02-26T21:42:02.510Z,14.27
2019-02-26T21:44:28.910Z,8.13
2019-02-26T21:46:56.109Z,8.33
2019-02-26T21:49:23.149Z,8.47
2019-02-26T21:51:49.562Z,11.20
2019-02-26T21:54:17.365Z,10.57
2019-02-26T21:56:43.765Z,8.27
2019-02-26T21:59:10.689Z,6.87
2019-02-26T22:01:38.092Z,6.87
2019-02-26T22:04:04.498Z,9.00
2019-02-26T22:06:31.277Z,7.77
2019-02-26T22:08:57.833Z,7.07
2019-02-26T22:11:24.313Z,5.53
2019-02-26T22:13:51.050Z,5.63
2019-02-26T22:16:17.669Z,4.33
2019-02-26T22:18:45.056Z,6.50
2019-02-26T22:21:11.536Z,4.73
2019-02-26T22:23:38.046Z,5.80
2019-02-26T22:26:04.827Z,3.80
2019-02-26T22:28:31.447Z,6.70
2019-02-26T22:30:57.873Z,6.80
2019-02-26T22:33:24.386Z,4.80
2019-02-26T22:35:50.910Z,5.57
2019-02-26T22:38:17.393Z,6.27
2019-02-26T22:40:44.276Z,5.90
2019-02-26T22:43:13.625Z,4.97
2019-02-26T22:45:39.290Z,7.53
2019-02-26T22:48:05.809Z,5.80
2019-02-26T22:50:32.425Z,5.87
2019-02-26T22:52:59.066Z,4.50
2019-02-26T22:55:25.506Z,6.63
2019-02-26T22:57:52.640Z,4.63
2019-02-26T23:00:48.265Z,5.50
2019-02-26T23:03:13.690Z,5.53
2019-02-26T23:05:40.402Z,4.57
2019-02-26T23:08:09.589Z,4.27
2019-02-26T23:10:37.223Z,4.27
2019-02-26T23:13:03.834Z,4.30
2019-02-26T23:15:31.745Z,4.57
2019-02-26T23:17:58.928Z,7.87
2019-02-26T23:20:26.842Z,5.67
2019-02-26T23:22:53.356Z,4.97
2019-02-26T23:25:20.433Z,8.77
2019-02-26T23:27:48.647Z,4.60
2019-02-26T23:30:16.439Z,5.43
2019-02-26T23:32:42.837Z,9.47
2019-02-26T23:35:10.949Z,7.07
2019-02-26T23:37:37.480Z,7.03
2019-02-26T23:40:07.589Z,5.20
2019-02-26T23:42:38.566Z,5.80
2019-02-26T23:45:08.136Z,7.63
2019-02-26T23:47:35.147Z,7.60
2019-02-26T23:50:04.833Z,6.93
2019-02-26T23:52:31.493Z,6.13
2019-02-26T23:54:57.967Z,6.60
2019-02-26T23:57:25.071Z,5.17
2019-02-26T23:59:52.190Z,4.60
